logo tempoitalia

Diretta Meteo Slayton, Stati Uniti (USA)lunedì 31 agosto ore 01:33

Mappa
Sereno 22 °C Nuvoloso 24 Ore: T.min 19 T.max 33
Ponente Sud/Sud-Ovest Km/h 11.1 Punto di rugiada: 21 °C Umidità: 94% Visibilità: 10 Km
Il sole sorge alle: 06:45 Il sole tramonta alle: 20:01
31 Agosto 2026 01:33 tempo osservato: Nuvoloso Nuvoloso 22 94 1009 vento: Nord S/SO 11.1
31 Agosto 2026 01:13 tempo osservato: Nuvoloso Nuvoloso 22 94 1009 vento: Nord S 7.4
31 Agosto 2026 00:53 tempo osservato: Sereno Sereno 23 94 1008 vento: Nord S 7.4
31 Agosto 2026 00:33 tempo osservato: Sereno Sereno 23 94 1008 vento: Nord S/SO 13
31 Agosto 2026 00:13 tempo osservato: Sereno Sereno 24 83 1009 vento: Nord S/SO 14.8
30 Agosto 2026 23:53 tempo osservato: Sereno Sereno 24 83 1009 vento: Nord S/SO 14.8
30 Agosto 2026 23:33 tempo osservato: Sereno Sereno 24 83 1009 vento: Nord S/SO 16.7
30 Agosto 2026 23:13 tempo osservato: Sereno Sereno 25 78 1009 vento: Nord S/SO 16.7
30 Agosto 2026 22:53 tempo osservato: Sereno Sereno 25 78 1009 vento: Nord S/SO 16.7
30 Agosto 2026 22:33 tempo osservato: Sereno Sereno 25 78 1008 vento: Nord S/SO 22.2
30 Agosto 2026 22:13 tempo osservato: Sereno Sereno 25 78 1008 vento: Nord S/SO 18.5
30 Agosto 2026 21:53 tempo osservato: Sereno Sereno 25 83 1008 vento: Nord S 16.7
30 Agosto 2026 21:33 tempo osservato: Sereno Sereno 25 78 1008 vento: Nord S 14.8
30 Agosto 2026 21:13 tempo osservato: Sereno Sereno 24 83 1008 vento: Nord S 11.1
30 Agosto 2026 20:53 tempo osservato: Sereno Sereno 25 78 1008 vento: Nord S/SE 13
30 Agosto 2026 20:33 tempo osservato: Sereno Sereno 25 78 1008 vento: Nord S/SE 13
30 Agosto 2026 20:13 tempo osservato: Sereno Sereno 26 78 1008 vento: Nord S 13
30 Agosto 2026 19:53 tempo osservato: Sereno Sereno 27 74 1008 vento: Nord S 16.7
30 Agosto 2026 19:33 tempo osservato: Sereno Sereno 28 74 1008 vento: Nord S 13
30 Agosto 2026 19:13 tempo osservato: Sereno Sereno 29 70 1008 vento: Nord S 24
30 Agosto 2026 18:53 tempo osservato: Sereno Sereno 29 70 1008 vento: Nord S 24
30 Agosto 2026 18:33 tempo osservato: Sereno Sereno 30 66 1008 vento: Nord S 22.2
30 Agosto 2026 18:13 tempo osservato: Sereno Sereno 31 62 1007 vento: Nord S 14.8
30 Agosto 2026 17:53 tempo osservato: Sereno Sereno 31 66 1007 vento: Nord S 14.8
30 Agosto 2026 17:33 tempo osservato: Sereno Sereno 31 62 1007 vento: Nord S 11.1
30 Agosto 2026 17:13 tempo osservato: Sereno Sereno 32 62 1007 vento: Nord S 16.7
30 Agosto 2026 16:53 tempo osservato: Sereno Sereno 32 59 1007 vento: Nord S 14.8
30 Agosto 2026 16:33 tempo osservato: Sereno Sereno 32 59 1007 vento: Nord S 9.3
30 Agosto 2026 16:13 tempo osservato: Sereno Sereno 32 55 1007 vento: Nord S 9.3
30 Agosto 2026 15:53 tempo osservato: Sereno Sereno 33 46 1007 vento: Nord S/SO 7.4
30 Agosto 2026 15:33 tempo osservato: Sereno Sereno 32 52 1007 vento: Nord S/SO 14.8
30 Agosto 2026 15:13 tempo osservato: Sereno Sereno 32 29 1007 vento: Nord S/SE 7.4
30 Agosto 2026 14:53 tempo osservato: Sereno Sereno 32 55 1007 vento: Nord S/SO 13
30 Agosto 2026 14:33 tempo osservato: Sereno Sereno 32 55 1008 vento: Nord S 7.4
30 Agosto 2026 14:13 tempo osservato: Sereno Sereno 32 55 1008 vento: Nord S 13
30 Agosto 2026 13:53 tempo osservato: Sereno Sereno 32 59 1008 vento: Nord S 13
30 Agosto 2026 13:33 tempo osservato: Sereno Sereno 31 66 1008 vento: Nord S/SE 14.8
30 Agosto 2026 13:13 tempo osservato: Sereno Sereno 31 58 1008 vento: Nord S/SE 14.8
30 Agosto 2026 12:53 tempo osservato: Sereno Sereno 31 58 1008 vento: Nord E/SE 11.1
30 Agosto 2026 12:33 tempo osservato: Sereno Sereno 30 66 1008 vento: Nord E 16.7
30 Agosto 2026 12:13 tempo osservato: Sereno Sereno 30 70 1008 vento: Nord SE 13
30 Agosto 2026 11:53 tempo osservato: Sereno Sereno 30 74 1008 vento: Nord E/SE 13
30 Agosto 2026 11:33 tempo osservato: Sereno Sereno 29 74 1008 vento: Nord S/SE 9.3
30 Agosto 2026 11:13 tempo osservato: Sereno Sereno 28 78 1009 vento: Nord N 5.5
30 Agosto 2026 10:53 tempo osservato: Sereno Sereno 27 83 1009 vento: Nord S/SE 7.4
30 Agosto 2026 10:33 tempo osservato: Sereno Sereno 26 88 1008 vento: Nord N 0
30 Agosto 2026 10:13 tempo osservato: Sereno Sereno 25 88 1008 vento: Nord N 0
30 Agosto 2026 09:53 tempo osservato: Temporale nelle vicinanze Temporale nelle vicinanze 24 94 1008 vento: Nord N 0
30 Agosto 2026 09:33 tempo osservato: Sereno Sereno 22 100 1008 vento: Nord N 5.5
30 Agosto 2026 09:13 tempo osservato: Sereno Sereno 22 100 1008 vento: Nord S/SE 9.3
30 Agosto 2026 08:53 tempo osservato: Foschia Foschia 21 100 1008 vento: Nord SE 9.3
30 Agosto 2026 08:33 tempo osservato: Foschia Foschia 20 100 1008 vento: Nord N 0
30 Agosto 2026 08:13 tempo osservato: Foschia Foschia 20 100 1008 vento: Nord N 0
30 Agosto 2026 07:53 tempo osservato: Foschia Foschia 19 100 1008 vento: Nord N 5.5
30 Agosto 2026 07:33 tempo osservato: Foschia Foschia 19 100 1008 vento: Nord N 5.5
30 Agosto 2026 07:13 tempo osservato: Foschia Foschia 19 100 1008 vento: Nord N 0
30 Agosto 2026 06:53 tempo osservato: Foschia Foschia 19 100 1008 vento: Nord N 5.5
30 Agosto 2026 06:33 tempo osservato: Foschia Foschia 19 100 1008 vento: Nord N 5.5
30 Agosto 2026 06:13 tempo osservato: Foschia Foschia 19 100 1008 vento: Nord N 5.5
30 Agosto 2026 05:53 tempo osservato: Foschia Foschia 19 100 1008 vento: Nord E/SE 9.3
30 Agosto 2026 05:33 tempo osservato: Sereno Sereno 19 100 1008 vento: Nord E/SE 7.4
30 Agosto 2026 05:13 tempo osservato: Nuvoloso Nuvoloso 19 100 1008 vento: Nord N 0
30 Agosto 2026 04:53 tempo osservato: Sereno Sereno 19 100 1008 vento: Nord N 0
30 Agosto 2026 04:33 tempo osservato: Sereno Sereno 19 100 1009 vento: Nord S 7.4
30 Agosto 2026 04:13 tempo osservato: Sereno Sereno 19 100 1009 vento: Nord S/SE 9.3
30 Agosto 2026 03:53 tempo osservato: Sereno Sereno 19 100 1008 vento: Nord SE 7.4
30 Agosto 2026 03:33 tempo osservato: Sereno Sereno 19 100 1008 vento: Nord SE 7.4
30 Agosto 2026 03:13 tempo osservato: Sereno Sereno 19 100 1008 vento: Nord SE 9.3
30 Agosto 2026 02:53 tempo osservato: Sereno Sereno 19 100 1008 vento: Nord SE 7.4
30 Agosto 2026 02:33 tempo osservato: Sereno Sereno 20 100 1009 vento: Nord N 0
30 Agosto 2026 02:13 tempo osservato: Sereno Sereno 19 100 1009 vento: Nord SE 7.4
30 Agosto 2026 01:53 tempo osservato: Sereno Sereno 19 100 1009 vento: Nord SE 7.4
30 Agosto 2026 01:33 tempo osservato: Sereno Sereno 19 100 1009 vento: Nord SE 9.3